Time;durP1;ratioP1;P1;durP2;ratioP2;P2;SDS_P1;SDS_P2;PMS_P1;PMS_P2;Temp;Humidity;BMP_temperature;BMP_pressure;BME280_temperature;BME280_humidity;BME280_pressure;Samples;Min_cycle;Max_cycle;Signal;HPM_P1;HPM_P2
2021/12/23 05:02:47;;;;;;;28.30;11.55;;;;;;;-7.49;95.88;100737.75;4503351;31;160150;-77
2021/12/23 05:05:34;;;;;;;29.65;12.05;;;;;;;-6.85;95.49;100753.84;4486537;32;35060;-77
2021/12/23 05:08:20;;;;;;;33.38;12.07;;;;;;;-6.38;90.57;100750.34;4494682;31;33660;-77
2021/12/23 05:11:07;;;;;;;32.92;13.30;;;;;;;-5.72;88.48;100746.31;4491113;32;35895;-78
2021/12/23 05:13:53;;;;;;;31.48;13.43;;;;;;;-5.19;85.30;100733.00;4494846;32;34459;-77
2021/12/23 05:16:40;;;;;;;35.20;12.88;;;;;;;-4.83;83.64;100732.34;4495617;31;35145;-78
2021/12/23 05:19:27;;;;;;;36.63;14.93;;;;;;;-4.58;82.03;100731.03;4494799;32;34673;-78
2021/12/23 05:22:13;;;;;;;30.52;14.50;;;;;;;-4.43;79.87;100728.34;4482003;32;35902;-74
2021/12/23 05:25:00;;;;;;;32.20;14.43;;;;;;;-4.20;78.51;100722.03;4492851;32;34518;-74
2021/12/23 05:27:47;;;;;;;32.53;14.00;;;;;;;-4.53;78.79;100717.09;4474912;32;35173;-74
2021/12/23 05:30:33;;;;;;;30.85;14.07;;;;;;;-3.94;76.93;100711.63;4497578;31;35601;-74
2021/12/23 05:33:20;;;;;;;32.97;13.70;;;;;;;-3.72;75.57;100725.06;4497628;32;34979;-74
2021/12/23 05:36:06;;;;;;;31.60;14.20;;;;;;;-3.46;74.24;100725.28;4497545;31;34589;-73
2021/12/23 05:38:53;;;;;;;31.42;14.75;;;;;;;-3.65;73.63;100734.78;4497237;32;34270;-74
2021/12/23 05:41:40;;;;;;;28.35;13.15;;;;;;;-3.38;73.31;100744.94;4497423;31;35569;-74
2021/12/23 05:44:26;;;;;;;28.62;13.65;;;;;;;-3.27;72.74;100745.25;4485610;32;35919;-73
2021/12/23 05:47:12;;;;;;;35.70;14.93;;;;;;;-3.13;72.22;100742.66;4491143;31;34592;-74
2021/12/23 05:49:58;;;;;;;36.03;14.73;;;;;;;-3.20;72.17;100743.44;4497390;31;34307;-74
2021/12/23 05:52:45;;;;;;;34.03;14.13;;;;;;;-2.96;71.56;100733.31;4497341;32;34640;-73
2021/12/23 05:55:31;;;;;;;33.35;14.55;;;;;;;-2.89;71.53;100720.78;4496512;32;35963;-74
2021/12/23 05:58:18;;;;;;;28.92;13.55;;;;;;;-3.42;72.83;100723.03;4481656;32;35410;-74
2021/12/23 06:01:05;;;;;;;33.13;14.18;;;;;;;-3.27;71.95;100733.72;4469302;32;34176;-74
2021/12/23 06:03:51;;;;;;;33.83;15.50;;;;;;;-3.08;72.35;100718.78;4492175;32;34737;-74
2021/12/23 06:06:37;;;;;;;30.58;14.02;;;;;;;-3.25;72.63;100713.72;4497441;31;36027;-74
2021/12/23 06:09:24;;;;;;;30.80;14.13;;;;;;;-3.19;72.52;100710.28;4485707;32;34482;-74
2021/12/23 06:12:10;;;;;;;33.13;13.70;;;;;;;-2.99;71.61;100714.94;4495438;32;34284;-74
2021/12/23 06:14:57;;;;;;;30.75;15.18;;;;;;;-3.21;72.16;100701.59;4486736;32;34604;-75
2021/12/23 06:17:44;;;;;;;32.50;14.35;;;;;;;-3.22;72.70;100709.81;4485731;32;35853;-74
2021/12/23 06:20:31;;;;;;;34.40;14.10;;;;;;;-3.24;72.54;100701.97;4486609;32;35444;-75
2021/12/23 06:23:17;;;;;;;31.20;13.88;;;;;;;-2.86;71.24;100714.19;4486706;32;35188;-75
2021/12/23 06:26:03;;;;;;;29.33;13.50;;;;;;;-2.94;71.27;100707.13;4485832;32;34592;-75
2021/12/23 06:28:49;;;;;;;32.00;15.00;;;;;;;-2.76;70.70;100710.16;4485867;32;34998;-75
2021/12/23 06:31:36;;;;;;;33.13;14.35;;;;;;;-2.82;70.73;100710.09;4486622;32;34513;-75
2021/12/23 06:34:22;;;;;;;35.17;14.57;;;;;;;-2.91;71.12;100700.53;4474712;32;35139;-75
2021/12/23 06:37:09;;;;;;;36.10;14.73;;;;;;;-2.88;70.75;100695.63;4472485;32;35539;-75
2021/12/23 06:39:55;;;;;;;30.98;14.10;;;;;;;-3.01;71.61;100700.91;4485814;32;35032;-76
2021/12/23 06:42:42;;;;;;;29.92;13.57;;;;;;;-2.57;70.10;100699.72;4474268;32;34695;-76
2021/12/23 06:45:28;;;;;;;30.88;14.10;;;;;;;-2.53;69.40;100709.84;4469994;32;35058;-75
2021/12/23 06:48:14;;;;;;;31.77;15.63;;;;;;;-2.83;70.06;100706.59;4471011;32;34712;-75
2021/12/23 06:51:01;;;;;;;36.88;15.35;;;;;;;-2.60;69.55;100702.78;4469754;32;35011;-76
2021/12/23 06:53:48;;;;;;;28.58;13.45;;;;;;;-2.59;69.80;100707.13;4479302;32;34625;-75
2021/12/23 06:56:34;;;;;;;32.90;15.10;;;;;;;-2.73;69.67;100701.72;4486292;32;34222;-75
2021/12/23 06:59:20;;;;;;;36.08;15.23;;;;;;;-2.63;69.64;100704.00;4486557;32;34664;-76
2021/12/23 07:02:07;;;;;;;34.45;14.40;;;;;;;-2.71;70.02;100707.69;4474430;32;35037;-76
2021/12/23 07:04:53;;;;;;;33.88;15.32;;;;;;;-2.80;70.49;100711.56;4463354;32;34571;-76
2021/12/23 07:07:43;;;;;;;33.85;14.23;;;;;;;-2.64;70.69;100698.88;4486507;32;34145;-76
2021/12/23 07:31:10;;;;;;;32.83;14.23;;;;;;;-3.94;80.21;100685.97;4519773;31;133022;-75
2021/12/23 07:33:57;;;;;;;34.28;15.65;;;;;;;-3.94;80.22;100687.53;4496808;31;34622;-75
2021/12/23 07:36:43;;;;;;;28.77;13.48;;;;;;;-3.75;78.67;100702.16;4501360;31;35614;-76
2021/12/23 07:39:29;;;;;;;35.58;14.52;;;;;;;-3.35;76.35;100694.47;4498622;31;34936;-76
2021/12/23 07:42:34;;;;;;;31.80;14.45;;;;;;;-2.80;74.39;100698.13;4497726;31;35304;-78
2021/12/23 07:45:22;;;;;;;32.53;14.50;;;;;;;-2.43;72.17;100692.56;4497860;32;34234;-76
2021/12/23 07:48:08;;;;;;;31.98;14.07;;;;;;;-2.60;72.83;100682.16;4497510;31;34341;-76
2021/12/23 07:50:55;;;;;;;27.33;12.93;;;;;;;-2.55;72.08;100682.38;4485849;32;34949;-74
2021/12/23 07:53:41;;;;;;;27.45;13.55;;;;;;;-2.31;71.83;100681.03;4485962;32;35328;-75
2021/12/23 07:56:27;;;;;;;31.98;14.13;;;;;;;-2.29;72.16;100678.16;4485627;32;34207;-75
2021/12/23 07:59:14;;;;;;;28.48;13.60;;;;;;;-2.13;70.44;100667.06;4497706;31;35578;-75
2021/12/23 08:02:00;;;;;;;29.45;14.02;;;;;;;-2.05;71.29;100668.72;4485784;32;34927;-76
2021/12/23 08:04:47;;;;;;;30.77;13.50;;;;;;;-2.18;70.57;100668.69;4497578;31;34536;-76
2021/12/23 08:07:34;;;;;;;30.50;14.05;;;;;;;-1.93;69.70;100659.06;4497544;31;34412;-76
2021/12/23 08:10:20;;;;;;;30.67;13.70;;;;;;;-1.90;69.48;100661.31;4485239;32;34537;-76
2021/12/23 08:13:07;;;;;;;30.83;13.45;;;;;;;-1.73;68.62;100656.41;4485863;31;35007;-76
2021/12/23 08:15:54;;;;;;;32.63;13.20;;;;;;;-1.76;68.82;100656.00;4498596;31;34608;-76
2021/12/23 08:18:41;;;;;;;28.67;13.40;;;;;;;-1.70;68.68;100652.47;4501905;31;34395;-76
2021/12/23 08:21:28;;;;;;;29.35;14.05;;;;;;;-1.85;69.59;100653.50;4501275;31;34594;-77
2021/12/23 08:24:17;;;;;;;28.45;13.88;;;;;;;-1.36;67.67;100649.56;4513153;31;34929;-77
2021/12/23 08:27:05;;;;;;;24.20;12.32;;;;;;;-1.16;66.35;100654.13;4494580;32;35364;-76
2021/12/23 08:29:51;;;;;;;27.95;12.77;;;;;;;-1.34;67.12;100648.53;4497197;32;34266;-76
2021/12/23 08:32:38;;;;;;;31.08;13.30;;;;;;;-1.56;68.47;100632.63;4498937;31;34669;-76
2021/12/23 08:35:24;;;;;;;24.65;11.90;;;;;;;-0.95;66.08;100637.72;4486343;31;34915;-76
2021/12/23 08:38:11;;;;;;;25.65;12.15;;;;;;;-0.84;65.44;100640.81;4503224;31;34577;-77
2021/12/23 08:40:57;;;;;;;26.12;11.10;;;;;;;-0.96;65.58;100636.06;4502653;31;35156;-77
2021/12/23 08:43:48;;;;;;;27.52;13.68;;;;;;;-0.64;63.64;100643.44;4477704;31;35623;-77
2021/12/23 08:46:34;;;;;;;25.33;11.15;;;;;;;-1.46;66.03;100637.56;4486852;31;36011;-77
2021/12/23 08:49:21;;;;;;;22.60;10.60;;;;;;;-0.95;63.09;100645.78;4492007;31;35380;-77
2021/12/23 08:52:07;;;;;;;23.42;11.07;;;;;;;-0.80;62.30;100645.53;4491521;31;34226;-76
2021/12/23 08:54:54;;;;;;;20.83;10.07;;;;;;;-0.65;62.78;100641.78;4493103;31;35536;-76
2021/12/23 08:57:44;;;;;;;24.33;10.88;;;;;;;-0.80;62.24;100633.94;4499940;31;35024;-76
2021/12/23 09:00:32;;;;;;;22.30;10.82;;;;;;;-1.11;63.22;100632.81;4482616;32;35346;-76
2021/12/23 09:03:18;;;;;;;20.00;9.77;;;;;;;-0.90;62.71;100634.41;4476374;32;35036;-77
2021/12/23 09:06:05;;;;;;;24.83;11.02;;;;;;;-0.98;62.68;100637.31;4489285;31;34761;-76
2021/12/23 09:08:53;;;;;;;21.60;10.15;;;;;;;-0.75;61.77;100631.44;4495577;31;35182;-76
2021/12/23 09:11:40;;;;;;;19.73;8.77;;;;;;;-0.58;61.04;100619.16;4489756;31;34633;-77
2021/12/23 09:14:27;;;;;;;18.40;8.75;;;;;;;-0.58;59.33;100611.09;4488729;31;34134;-76
2021/12/23 09:17:13;;;;;;;19.87;7.57;;;;;;;-0.55;58.90;100616.03;4485872;31;35458;-76
2021/12/23 09:20:00;;;;;;;20.88;8.35;;;;;;;-0.32;57.08;100610.13;4496179;31;34947;-76
2021/12/23 09:22:48;;;;;;;20.17;9.05;;;;;;;-0.36;57.08;100603.53;4502028;31;35377;-76
2021/12/23 09:25:35;;;;;;;22.50;8.32;;;;;;;-0.19;57.43;100600.34;4487026;31;34150;-76
2021/12/23 09:28:31;;;;;;;14.32;7.10;;;;;;;-0.63;58.27;100597.44;4488193;31;34610;-76
2021/12/23 09:34:27;;;;;;;18.00;7.47;;;;;;;0.15;54.87;100582.91;4476328;32;34082;-75
2021/12/23 09:37:14;;;;;;;13.80;6.45;;;;;;;-0.15;54.64;100578.12;4474418;32;34230;-75
2021/12/23 09:40:03;;;;;;;16.70;7.22;;;;;;;-0.05;55.45;100567.69;4486219;32;34623;-75
2021/12/23 09:42:50;;;;;;;13.05;6.00;;;;;;;0.14;53.72;100570.44;4497470;31;35032;-74
2021/12/23 09:45:39;;;;;;;13.55;6.65;;;;;;;0.29;53.78;100567.44;4474183;32;35390;-74
2021/12/23 09:48:28;;;;;;;12.77;6.40;;;;;;;0.09;54.03;100573.00;4490265;31;35050;-73
2021/12/23 09:51:18;;;;;;;14.80;6.53;;;;;;;0.30;53.46;100561.81;4482850;31;34523;-74
2021/12/23 09:54:08;;;;;;;12.15;6.12;;;;;;;0.37;52.64;100561.75;4465241;31;34917;-74
2021/12/23 09:56:56;;;;;;;16.98;7.22;;;;;;;0.67;52.69;100572.69;4478171;32;34697;-74
2021/12/23 09:59:43;;;;;;;16.25;6.72;;;;;;;0.15;53.27;100566.72;4491528;31;34123;-74
2021/12/23 10:02:30;;;;;;;12.82;6.32;;;;;;;-0.01;53.95;100571.59;4497011;31;35640;-74
2021/12/23 10:05:20;;;;;;;12.10;6.32;;;;;;;0.45;51.63;100542.59;4463469;32;35029;-75
2021/12/23 10:08:08;;;;;;;18.45;6.57;;;;;;;0.40;52.07;100535.19;4493841;31;35352;-75
2021/12/23 10:11:04;;;;;;;11.60;6.25;;;;;;;0.53;51.76;100528.03;4474128;32;34251;-75
2021/12/23 10:38:55;;;;;;;13.62;6.25;;;;;;;0.77;50.26;100489.38;4482580;31;34558;-75
2021/12/23 10:41:42;;;;;;;13.52;5.72;;;;;;;1.10;50.28;100478.16;4475743;31;35011;-75
2021/12/23 10:44:30;;;;;;;10.90;5.20;;;;;;;1.08;49.62;100474.03;4478167;31;35264;-75
2021/12/23 10:47:41;;;;;;;14.25;5.95;;;;;;;1.35;48.95;100472.62;4495522;31;34113;-75
2021/12/23 10:50:41;;;;;;;12.20;5.80;;;;;;;1.40;47.90;100455.75;4477337;31;34503;-74
2021/12/23 10:59:48;;;;;;;12.50;5.22;;;;;;;1.39;48.38;100437.06;4487949;31;34339;-74
2021/12/23 11:02:37;;;;;;;11.90;5.87;;;;;;;1.97;47.25;100444.44;4492203;31;34466;-74
2021/12/23 11:05:28;;;;;;;13.43;6.22;;;;;;;1.91;47.18;100439.97;4490092;31;35017;-74
2021/12/23 11:08:26;;;;;;;15.27;6.57;;;;;;;1.90;47.91;100416.69;4492206;31;35410;-75
2021/12/23 11:42:01;;;;;;;13.62;5.93;;;;;;;1.43;47.68;100349.97;4476475;31;35164;-72
2021/12/23 11:44:47;;;;;;;11.38;5.40;;;;;;;1.27;47.91;100342.53;4489817;31;34580;-72
2021/12/23 11:47:34;;;;;;;20.88;8.82;;;;;;;1.24;47.64;100333.00;4480173;31;34135;-72
2021/12/23 11:50:30;;;;;;;17.25;6.37;;;;;;;0.98;47.67;100328.03;4490272;31;34918;-72
2021/12/23 11:53:17;;;;;;;22.67;8.70;;;;;;;0.92;47.67;100323.56;4480220;31;34997;-72
2021/12/23 11:56:09;;;;;;;22.35;6.65;;;;;;;1.03;47.66;100320.09;4478991;32;35612;-72
2021/12/23 11:58:58;;;;;;;19.48;6.57;;;;;;;1.20;47.61;100315.66;4475874;32;34202;-71
2021/12/23 12:01:54;;;;;;;10.85;4.30;;;;;;;0.91;47.96;100320.03;4476554;31;34237;-72
2021/12/23 12:04:42;;;;;;;11.12;5.10;;;;;;;1.56;46.87;100313.78;4476635;32;35926;-71
2021/12/23 12:07:28;;;;;;;13.52;4.97;;;;;;;1.26;47.20;100306.62;4476881;31;34539;-71
2021/12/23 12:10:21;;;;;;;9.98;4.62;;;;;;;0.94;47.00;100295.31;4490386;31;34084;-72
2021/12/23 12:13:10;;;;;;;8.63;4.10;;;;;;;0.79;46.38;100290.31;4478557;31;34662;-71
2021/12/23 12:15:58;;;;;;;10.55;5.10;;;;;;;0.83;46.45;100293.41;4479145;31;36005;-72
2021/12/23 12:18:51;;;;;;;10.57;4.95;;;;;;;0.75;46.69;100286.47;4469040;31;35320;-71
2021/12/23 12:21:42;;;;;;;11.25;5.37;;;;;;;0.83;46.52;100288.81;4477464;31;35055;-72
2021/12/23 12:24:29;;;;;;;;;;;;;;;0.79;46.65;100274.13;4487846;31;34676;-71
2021/12/23 12:27:16;;;;;;;12.80;5.82;;;;;;;1.11;46.55;100276.53;4474842;32;35258;-72
2021/12/23 12:30:07;;;;;;;9.85;4.53;;;;;;;1.25;46.13;100279.84;4488089;31;34613;-71
2021/12/23 12:32:54;;;;;;;15.23;6.32;;;;;;;1.10;46.14;100266.81;4476382;31;34091;-71
2021/12/23 12:35:41;;;;;;;10.80;5.18;;;;;;;1.40;45.42;100268.59;4494461;31;34695;-71
2021/12/23 12:38:54;;;;;;;9.07;4.75;;;;;;;1.49;45.69;100264.47;4494714;31;36076;-72
2021/12/23 12:41:41;;;;;;;9.32;4.35;;;;;;;1.38;45.69;100262.59;4468757;31;34595;-71
2021/12/23 12:44:41;;;;;;;11.35;5.28;;;;;;;1.46;45.74;100271.16;4482255;32;34218;-71
2021/12/23 12:47:36;;;;;;;10.85;5.25;;;;;;;1.71;45.74;100264.69;4475393;32;34584;-71
2021/12/23 12:50:27;;;;;;;13.70;4.90;;;;;;;1.41;46.20;100268.34;4486600;32;35178;-71
2021/12/23 12:53:18;;;;;;;14.85;5.00;;;;;;;1.63;46.18;100254.25;4486142;31;33316;-71
2021/12/23 12:56:07;;;;;;;11.23;4.43;;;;;;;1.59;45.23;100251.19;4474672;32;34061;-71
2021/12/23 12:58:55;;;;;;;10.45;4.40;;;;;;;1.40;46.04;100247.00;4475666;32;34933;-70
2021/12/23 13:01:45;;;;;;;10.32;4.10;;;;;;;1.45;45.34;100238.97;4474702;32;35082;-71
2021/12/23 13:04:41;;;;;;;10.02;3.62;;;;;;;1.31;45.23;100225.75;4476078;32;33426;-70
2021/12/23 13:07:31;;;;;;;7.15;3.85;;;;;;;1.29;45.47;100227.84;4486542;32;34160;-71
2021/12/23 13:10:28;;;;;;;9.48;4.85;;;;;;;1.55;45.56;100221.13;4491847;31;34589;-75
2021/12/23 13:13:24;;;;;;;12.70;5.12;;;;;;;1.20;46.29;100218.47;4489347;31;35916;-76
2021/12/23 13:16:23;;;;;;;8.43;3.97;;;;;;;0.88;46.20;100215.28;4495216;31;35504;-76
2021/12/23 13:19:17;;;;;;;11.48;5.28;;;;;;;1.19;45.48;100206.00;4480790;31;33740;-78
2021/12/23 13:22:06;;;;;;;11.23;4.87;;;;;;;1.13;45.16;100207.78;4471717;31;34564;-79
2021/12/23 13:24:55;;;;;;;10.40;5.07;;;;;;;0.97;46.43;100202.25;4472481;31;34907;-76
2021/12/23 13:27:43;;;;;;;14.18;5.68;;;;;;;1.11;45.47;100204.50;4471107;31;34458;-77
2021/12/23 13:30:30;;;;;;;9.30;4.50;;;;;;;1.05;45.77;100204.59;4484127;31;34128;-78
2021/12/23 13:33:16;;;;;;;12.52;5.20;;;;;;;0.95;45.45;100202.50;4480275;31;34161;-77
2021/12/23 13:36:12;;;;;;;10.15;5.18;;;;;;;1.50;44.83;100195.88;4487974;31;35054;-76
2021/12/23 13:39:12;;;;;;;9.55;4.80;;;;;;;1.56;44.92;100195.75;4489581;31;34623;-75
2021/12/23 13:42:01;;;;;;;9.95;4.80;;;;;;;0.75;46.13;100183.94;4474533;31;34892;-75
2021/12/23 13:44:51;;;;;;;10.75;5.07;;;;;;;1.28;45.75;100169.53;4488386;31;34586;-74
2021/12/23 13:47:37;;;;;;;11.12;5.00;;;;;;;1.60;45.19;100169.09;4491273;31;34932;-74
2021/12/23 13:50:27;;;;;;;10.70;4.80;;;;;;;1.57;45.55;100175.00;4487388;31;34630;-74
2021/12/23 13:53:16;;;;;;;11.43;5.07;;;;;;;1.71;45.09;100175.56;4471789;31;34619;-74
2021/12/23 13:56:11;;;;;;;13.52;4.65;;;;;;;1.19;45.41;100175.50;4458584;31;34233;-74
2021/12/23 13:59:09;;;;;;;10.88;5.00;;;;;;;0.87;45.75;100167.78;4487358;31;34935;-74
2021/12/23 14:02:08;;;;;;;10.77;4.68;;;;;;;0.93;45.45;100157.91;4470454;31;34364;-74
2021/12/23 14:05:03;;;;;;;15.68;5.70;;;;;;;1.16;44.83;100144.41;4473670;31;34153;-74
2021/12/23 14:07:52;;;;;;;13.68;5.15;;;;;;;1.09;45.49;100159.91;4489151;31;34570;-74
2021/12/23 14:10:42;;;;;;;17.12;5.57;;;;;;;0.94;45.68;100175.75;4485738;31;34984;-74
2021/12/23 14:13:28;;;;;;;12.52;5.25;;;;;;;1.45;44.78;100163.38;4486826;31;34360;-74
2021/12/23 14:16:17;;;;;;;10.65;4.90;;;;;;;1.29;45.72;100146.03;4485241;31;34544;-74
2021/12/23 14:19:22;;;;;;;11.00;5.12;;;;;;;1.71;44.61;100127.72;4481978;31;35018;-74
2021/12/23 14:25:15;;;;;;;13.62;5.78;;;;;;;1.51;45.40;100130.03;4473481;31;34568;-73
2021/12/23 14:28:02;;;;;;;10.30;4.90;;;;;;;1.17;45.92;100112.84;4487642;31;35563;-73
2021/12/23 14:31:04;;;;;;;9.82;4.68;;;;;;;0.83;46.73;100121.56;4482825;31;34490;-74
2021/12/23 14:33:54;;;;;;;10.45;4.87;;;;;;;1.01;45.79;100107.12;4480926;31;35990;-74
2021/12/23 14:37:00;;;;;;;10.32;4.90;;;;;;;0.85;45.94;100124.84;4480287;31;35051;-74
2021/12/23 14:39:46;;;;;;;10.25;4.37;;;;;;;0.77;46.68;100127.91;4483179;31;33885;-73
2021/12/23 14:42:33;;;;;;;10.70;4.85;;;;;;;0.71;46.42;100123.41;4482320;31;34509;-74
2021/12/23 14:45:20;;;;;;;10.73;5.10;;;;;;;0.97;46.52;100115.91;4469180;31;34879;-74
2021/12/23 14:48:14;;;;;;;11.23;5.80;;;;;;;0.88;46.80;100108.19;4486684;31;35295;-74
2021/12/23 14:51:02;;;;;;;11.57;5.37;;;;;;;1.22;46.43;100102.97;4484867;31;33810;-74
2021/12/23 14:54:19;;;;;;;10.52;5.50;;;;;;;0.97;46.58;100099.72;4473076;31;35563;-73
2021/12/23 14:57:06;;;;;;;9.85;5.18;;;;;;;1.16;46.20;100114.72;4469266;31;35979;-73
2021/12/23 15:00:05;;;;;;;9.18;4.85;;;;;;;1.25;45.61;100129.50;4485455;31;34686;-74
2021/12/23 15:03:03;;;;;;;11.52;5.80;;;;;;;1.22;45.76;100118.34;4484352;31;34316;-73
2021/12/23 15:05:52;;;;;;;12.95;6.90;;;;;;;1.13;46.37;100107.91;4472102;31;33297;-74
2021/12/23 15:08:42;;;;;;;11.12;5.72;;;;;;;1.39;45.40;100107.63;4480732;31;34948;-74
2021/12/23 15:11:30;;;;;;;10.30;5.00;;;;;;;1.16;44.94;100103.91;4479900;31;34603;-74
2021/12/23 15:14:17;;;;;;;11.05;5.20;;;;;;;1.33;45.50;100094.00;4481378;31;34767;-74
2021/12/23 15:17:12;;;;;;;10.63;5.03;;;;;;;1.21;45.55;100098.63;4469845;31;34555;-74
2021/12/23 15:19:59;;;;;;;14.38;6.00;;;;;;;1.19;45.59;100092.66;4485102;31;35021;-74
2021/12/23 15:22:45;;;;;;;14.18;5.97;;;;;;;1.20;45.68;100078.09;4488361;31;34529;-74
2021/12/23 15:25:38;;;;;;;13.62;5.97;;;;;;;1.32;45.27;100073.50;4488430;31;35136;-74
2021/12/23 15:28:25;;;;;;;12.05;5.85;;;;;;;1.42;45.20;100058.53;4482235;31;34340;-75
2021/12/23 15:31:16;;;;;;;10.10;5.40;;;;;;;1.38;45.46;100062.78;4466103;31;34366;-74
2021/12/23 15:34:09;;;;;;;11.85;5.90;;;;;;;1.37;46.14;100061.13;4475284;31;35203;-75
2021/12/23 15:36:57;;;;;;;11.63;5.80;;;;;;;1.27;46.14;100038.28;4483574;31;33962;-74
2021/12/23 15:39:44;;;;;;;13.43;6.60;;;;;;;1.25;46.16;100037.72;4468965;31;34604;-75
2021/12/23 15:42:31;;;;;;;18.17;8.07;;;;;;;1.21;46.50;100027.63;4484531;31;35138;-74
2021/12/23 15:45:17;;;;;;;12.52;6.00;;;;;;;1.33;46.18;100018.41;4479147;31;34631;-74
2021/12/23 15:48:06;;;;;;;12.63;6.10;;;;;;;1.35;46.22;100010.91;4468871;31;34034;-75
2021/12/23 15:50:53;;;;;;;14.68;6.62;;;;;;;1.44;45.94;100010.53;4484007;31;34673;-74
2021/12/23 15:53:40;;;;;;;12.65;6.80;;;;;;;1.31;46.13;99998.16;4482681;31;34949;-74
2021/12/23 15:56:27;;;;;;;14.23;7.12;;;;;;;1.21;46.40;100008.75;4487764;31;37121;-74
2021/12/23 15:59:14;;;;;;;16.20;6.95;;;;;;;0.87;47.22;100014.81;4476034;31;34125;-74
2021/12/23 16:02:04;;;;;;;15.63;7.18;;;;;;;1.23;46.23;99996.66;4474683;31;34244;-74
2021/12/23 16:07:57;;;;;;;12.70;6.55;;;;;;;0.94;46.64;99989.56;4464148;31;35334;-74
2021/12/23 16:10:45;;;;;;;14.40;7.20;;;;;;;0.86;47.13;99986.19;4486146;31;33734;-74
2021/12/23 16:13:40;;;;;;;14.82;6.80;;;;;;;1.10;46.45;99981.53;4482257;31;35167;-75
2021/12/23 16:16:27;;;;;;;12.20;6.30;;;;;;;1.20;46.76;99982.81;4483979;31;36032;-74
2021/12/23 16:19:13;;;;;;;15.23;6.95;;;;;;;1.06;46.86;99975.00;4468814;31;37270;-74
2021/12/23 16:21:59;;;;;;;13.95;7.28;;;;;;;1.39;45.90;99964.53;4490353;31;33613;-74
2021/12/23 16:24:46;;;;;;;13.88;7.25;;;;;;;1.57;45.41;99969.72;4483014;31;34286;-74
2021/12/23 16:27:33;;;;;;;14.93;6.85;;;;;;;1.49;45.24;99967.41;4460984;31;35004;-74
2021/12/23 16:30:24;;;;;;;15.15;6.62;;;;;;;1.06;46.16;99958.00;4459189;32;35192;-75
2021/12/23 16:33:16;;;;;;;13.80;6.95;;;;;;;1.21;45.99;99955.56;4457136;32;34992;-71
2021/12/23 16:36:03;;;;;;;17.73;7.40;;;;;;;1.05;46.53;99972.53;4456284;32;34548;-70
2021/12/23 16:38:52;;;;;;;15.10;6.82;;;;;;;1.16;46.81;99979.75;4458597;32;34620;-70
2021/12/23 16:41:40;;;;;;;17.87;7.80;;;;;;;1.16;46.39;99971.66;4456724;32;35459;-71
2021/12/23 16:44:27;;;;;;;15.52;7.93;;;;;;;1.05;46.93;99954.47;4458725;32;35123;-71
2021/12/23 16:47:14;;;;;;;17.17;7.72;;;;;;;1.06;46.57;99958.81;4455744;32;34495;-71
2021/12/23 16:50:00;;;;;;;14.43;7.97;;;;;;;0.87;47.26;99963.56;4457893;32;34682;-71
2021/12/23 16:52:50;;;;;;;13.65;7.12;;;;;;;0.92;47.36;99952.06;4450424;32;34559;-72
2021/12/23 16:58:27;;;;;;;14.23;7.18;;;;;;;1.21;47.09;99922.38;4454965;32;34842;-72
2021/12/23 17:01:18;;;;;;;17.98;7.97;;;;;;;1.32;46.45;99918.78;4443753;32;34980;-71
2021/12/23 17:04:04;;;;;;;15.10;7.68;;;;;;;1.02;47.18;99919.84;4454787;32;34140;-71
2021/12/23 17:06:53;;;;;;;15.77;7.43;;;;;;;1.09;46.89;99917.84;4459133;32;34773;-72
2021/12/23 17:09:42;;;;;;;17.75;8.32;;;;;;;0.76;48.44;99942.81;4457595;32;34192;-72
2021/12/23 17:12:28;;;;;;;18.92;8.13;;;;;;;1.03;47.76;99953.88;4449886;32;35891;-72
2021/12/23 17:15:15;;;;;;;17.00;8.05;;;;;;;1.34;46.72;99963.37;4453188;32;34212;-72
2021/12/23 17:18:06;;;;;;;19.77;8.00;;;;;;;1.32;46.71;99946.59;4459867;32;34350;-72
2021/12/23 17:23:39;;;;;;;16.65;8.02;;;;;;;1.25;46.87;99913.56;4455996;32;36588;-72
2021/12/23 17:26:28;;;;;;;17.10;8.68;;;;;;;0.57;49.16;99900.88;4456674;32;34530;-72
2021/12/23 17:29:16;;;;;;;18.12;9.05;;;;;;;0.64;48.87;99901.59;4458232;31;33095;-72
2021/12/23 17:32:02;;;;;;;17.42;8.63;;;;;;;0.01;50.90;99897.03;4484966;31;35994;-72
2021/12/23 17:34:50;;;;;;;15.90;7.80;;;;;;;-0.31;51.82;99894.69;4452332;31;34500;-72
2021/12/23 17:37:37;;;;;;;21.05;9.65;;;;;;;0.60;49.66;99897.75;4485527;31;35149;-72
2021/12/23 17:40:25;;;;;;;17.42;8.38;;;;;;;0.50;49.58;99887.56;4485806;31;34257;-72
2021/12/23 17:43:15;;;;;;;17.75;8.40;;;;;;;0.85;48.99;99892.00;4481300;31;34134;-72
2021/12/23 17:46:01;;;;;;;16.70;8.82;;;;;;;0.49;50.22;99883.22;4472258;31;35637;-72
2021/12/23 17:48:55;;;;;;;16.05;8.40;;;;;;;0.65;49.41;99870.84;4486004;31;35482;-72
2021/12/23 17:51:42;;;;;;;22.85;9.80;;;;;;;0.59;50.13;99866.44;4469355;31;33912;-72
2021/12/23 17:54:28;;;;;;;17.65;10.05;;;;;;;0.78;49.57;99869.78;4483749;31;34553;-72
2021/12/23 17:57:15;;;;;;;20.37;9.15;;;;;;;0.71;49.24;99859.09;4485653;31;34505;-72
2021/12/23 18:00:02;;;;;;;22.02;10.60;;;;;;;0.66;49.81;99862.53;4483209;31;35206;-72
2021/12/23 18:02:58;;;;;;;21.05;10.88;;;;;;;0.34;50.58;99864.87;4475295;31;34034;-73
2021/12/23 18:05:47;;;;;;;19.33;9.82;;;;;;;0.56;50.21;99848.84;4471047;31;33194;-73
2021/12/23 18:08:34;;;;;;;21.98;10.90;;;;;;;0.48;50.85;99854.63;4483104;31;35701;-72
2021/12/23 18:11:20;;;;;;;24.60;10.68;;;;;;;-0.10;52.29;99860.94;4483658;31;34215;-73
2021/12/23 18:14:08;;;;;;;22.15;10.15;;;;;;;-0.15;52.71;99866.22;4479502;31;35167;-73
2021/12/23 18:16:55;;;;;;;23.45;11.12;;;;;;;0.65;50.88;99854.69;4482456;31;34313;-73
2021/12/23 18:19:42;;;;;;;24.58;10.95;;;;;;;0.67;50.19;99837.19;4484136;31;34981;-73
2021/12/23 18:22:28;;;;;;;24.63;12.63;;;;;;;-0.49;53.92;99844.44;4478858;31;35325;-72
2021/12/23 18:25:15;;;;;;;24.55;12.32;;;;;;;-0.28;53.55;99832.28;4480394;31;33896;-72
2021/12/23 18:28:01;;;;;;;25.42;11.40;;;;;;;-0.25;53.60;99837.19;4471897;31;34611;-73
2021/12/23 18:30:51;;;;;;;24.70;11.73;;;;;;;0.20;52.49;99823.91;4484023;31;34697;-72
2021/12/23 18:33:37;;;;;;;23.23;11.43;;;;;;;0.36;51.89;99822.31;4473460;31;33298;-72
2021/12/23 18:36:30;;;;;;;25.55;11.05;;;;;;;0.22;52.56;99818.25;4472214;31;33190;-73
2021/12/23 18:39:29;;;;;;;23.50;11.02;;;;;;;0.45;51.69;99807.38;4470938;31;35510;-73
2021/12/23 18:42:24;;;;;;;23.95;12.30;;;;;;;0.39;52.27;99821.00;4469602;31;34638;-73
2021/12/23 18:45:11;;;;;;;29.70;12.88;;;;;;;0.05;52.87;99806.56;4485601;31;34317;-73
2021/12/23 18:47:57;;;;;;;25.15;13.48;;;;;;;0.14;52.48;99815.91;4480001;31;34232;-73
2021/12/23 18:50:44;;;;;;;27.55;13.20;;;;;;;0.39;52.32;99824.53;4471231;31;34646;-73
2021/12/23 18:53:30;;;;;;;26.75;13.10;;;;;;;0.78;51.37;99821.22;4471665;31;34950;-73
2021/12/23 18:56:16;;;;;;;29.67;13.98;;;;;;;0.95;50.47;99821.25;4471190;31;35033;-73
2021/12/23 18:59:03;;;;;;;26.20;13.07;;;;;;;0.33;52.08;99817.41;4472192;31;34211;-73
2021/12/23 19:01:56;;;;;;;27.08;12.80;;;;;;;0.56;51.55;99819.19;4471419;31;34285;-73
2021/12/23 19:07:29;;;;;;;27.80;13.68;;;;;;;0.66;51.37;99807.78;4482308;31;34627;-73
2021/12/23 19:10:15;;;;;;;28.85;13.55;;;;;;;0.13;52.61;99798.13;4482588;31;32988;-73
2021/12/23 19:13:03;;;;;;;29.90;14.50;;;;;;;0.53;51.98;99791.91;4459813;31;34203;-73
2021/12/23 19:15:49;;;;;;;25.20;13.48;;;;;;;-0.14;53.93;99793.28;4479707;31;34626;-72
2021/12/23 19:18:35;;;;;;;28.62;14.23;;;;;;;0.39;52.06;99786.78;4480195;31;34243;-73
2021/12/23 19:21:22;;;;;;;29.65;14.87;;;;;;;0.02;53.02;99796.28;4488385;31;35131;-73
2021/12/23 19:24:15;;;;;;;25.25;13.38;;;;;;;0.54;52.16;99798.91;4486694;31;34585;-73
2021/12/23 19:27:02;;;;;;;20.20;10.77;;;;;;;0.30;52.32;99799.00;4468426;31;35932;-73
2021/12/23 19:29:49;;;;;;;27.10;13.32;;;;;;;0.42;52.76;99799.78;4491306;31;34137;-73
2021/12/23 19:32:37;;;;;;;27.25;13.68;;;;;;;0.62;52.06;99782.34;4483184;31;34012;-73
2021/12/23 19:35:24;;;;;;;28.15;14.18;;;;;;;0.38;52.96;99766.28;4471218;31;34274;-73
2021/12/23 19:38:10;;;;;;;28.95;14.18;;;;;;;-0.05;54.39;99770.28;4470886;31;33657;-73
2021/12/23 19:40:57;;;;;;;28.33;14.70;;;;;;;0.35;53.31;99769.47;4471209;31;35482;-73
2021/12/23 19:43:43;;;;;;;29.17;13.80;;;;;;;0.39;53.04;99770.59;4478361;31;32805;-73